sensor_id;sensor_type;location;lat;lon;timestamp;temperature;humidity
69464;DHT22;56665;41.106;16.688;2023-04-01T00:01:47;15.66;67.20
69464;DHT22;56665;41.106;16.688;2023-04-01T00:04:51;15.59;67.49
69464;DHT22;56665;41.106;16.688;2023-04-01T00:07:55;15.59;67.66
69464;DHT22;56665;41.106;16.688;2023-04-01T00:10:58;15.49;67.96
69464;DHT22;56665;41.106;16.688;2023-04-01T00:14:03;15.45;68.06
69464;DHT22;56665;41.106;16.688;2023-04-01T00:17:06;15.43;68.39
69464;DHT22;56665;41.106;16.688;2023-04-01T00:20:11;15.38;68.37
69464;DHT22;56665;41.106;16.688;2023-04-01T00:23:15;15.29;68.61
69464;DHT22;56665;41.106;16.688;2023-04-01T00:26:19;15.23;68.67
69464;DHT22;56665;41.106;16.688;2023-04-01T00:29:24;15.08;69.02
69464;DHT22;56665;41.106;16.688;2023-04-01T00:32:32;15.05;68.37
69464;DHT22;56665;41.106;16.688;2023-04-01T00:35:35;15.09;68.47
69464;DHT22;56665;41.106;16.688;2023-04-01T00:38:40;15.11;67.65
69464;DHT22;56665;41.106;16.688;2023-04-01T00:41:45;15.12;67.53
69464;DHT22;56665;41.106;16.688;2023-04-01T00:44:53;15.14;67.91
69464;DHT22;56665;41.106;16.688;2023-04-01T00:48:00;15.08;67.12
69464;DHT22;56665;41.106;16.688;2023-04-01T00:51:09;15.05;67.20
69464;DHT22;56665;41.106;16.688;2023-04-01T00:54:14;15.05;66.84
69464;DHT22;56665;41.106;16.688;2023-04-01T00:57:28;14.89;66.90
69464;DHT22;56665;41.106;16.688;2023-04-01T01:00:35;14.63;67.61
69464;DHT22;56665;41.106;16.688;2023-04-01T01:03:40;14.49;67.46
69464;DHT22;56665;41.106;16.688;2023-04-01T01:10:33;14.63;67.26
69464;DHT22;56665;41.106;16.688;2023-04-01T01:13:57;14.67;66.42
69464;DHT22;56665;41.106;16.688;2023-04-01T01:20:42;14.78;65.79
69464;DHT22;56665;41.106;16.688;2023-04-01T01:27:09;14.74;64.15
69464;DHT22;56665;41.106;16.688;2023-04-01T01:30:39;14.64;62.97
69464;DHT22;56665;41.106;16.688;2023-04-01T01:37:06;14.47;62.54
69464;DHT22;56665;41.106;16.688;2023-04-01T01:40:13;14.47;63.06
69464;DHT22;56665;41.106;16.688;2023-04-01T01:43:21;14.47;62.56
69464;DHT22;56665;41.106;16.688;2023-04-01T01:46:27;14.53;63.07
69464;DHT22;56665;41.106;16.688;2023-04-01T01:49:33;14.59;62.68
69464;DHT22;56665;41.106;16.688;2023-04-01T01:52:38;14.61;62.55
69464;DHT22;56665;41.106;16.688;2023-04-01T01:55:44;14.59;62.27
69464;DHT22;56665;41.106;16.688;2023-04-01T01:59:01;14.57;62.27
69464;DHT22;56665;41.106;16.688;2023-04-01T02:02:07;14.49;62.29
69464;DHT22;56665;41.106;16.688;2023-04-01T02:05:25;14.57;62.45
69464;DHT22;56665;41.106;16.688;2023-04-01T02:08:40;14.64;62.31
69464;DHT22;56665;41.106;16.688;2023-04-01T02:11:52;14.68;62.64
69464;DHT22;56665;41.106;16.688;2023-04-01T02:15:08;14.67;62.99
69464;DHT22;56665;41.106;16.688;2023-04-01T02:18:13;14.68;63.26
69464;DHT22;56665;41.106;16.688;2023-04-01T02:21:20;14.68;63.47
69464;DHT22;56665;41.106;16.688;2023-04-01T02:24:26;14.67;63.90
69464;DHT22;56665;41.106;16.688;2023-04-01T02:27:31;14.64;64.63
69464;DHT22;56665;41.106;16.688;2023-04-01T02:30:36;14.61;65.38
69464;DHT22;56665;41.106;16.688;2023-04-01T02:33:41;14.63;65.92
69464;DHT22;56665;41.106;16.688;2023-04-01T02:36:47;14.64;66.24
69464;DHT22;56665;41.106;16.688;2023-04-01T02:39:51;14.67;66.73
69464;DHT22;56665;41.106;16.688;2023-04-01T02:42:55;14.70;67.01
69464;DHT22;56665;41.106;16.688;2023-04-01T02:45:59;14.73;67.16
69464;DHT22;56665;41.106;16.688;2023-04-01T02:49:03;14.71;67.55
69464;DHT22;56665;41.106;16.688;2023-04-01T02:52:07;14.73;67.78
69464;DHT22;56665;41.106;16.688;2023-04-01T02:55:10;14.74;67.94
69464;DHT22;56665;41.106;16.688;2023-04-01T02:58:14;14.76;68.00
69464;DHT22;56665;41.106;16.688;2023-04-01T03:01:18;14.74;68.28
69464;DHT22;56665;41.106;16.688;2023-04-01T03:04:22;14.76;68.35
69464;DHT22;56665;41.106;16.688;2023-04-01T03:07:27;14.77;68.47
69464;DHT22;56665;41.106;16.688;2023-04-01T03:10:31;14.78;68.58
69464;DHT22;56665;41.106;16.688;2023-04-01T03:13:35;14.76;68.82
69464;DHT22;56665;41.106;16.688;2023-04-01T03:16:38;14.81;68.84
69464;DHT22;56665;41.106;16.688;2023-04-01T03:19:42;14.77;69.10
69464;DHT22;56665;41.106;16.688;2023-04-01T03:22:47;14.77;69.34
69464;DHT22;56665;41.106;16.688;2023-04-01T03:25:50;14.81;69.38
69464;DHT22;56665;41.106;16.688;2023-04-01T03:28:54;14.80;69.40
69464;DHT22;56665;41.106;16.688;2023-04-01T03:32:00;14.76;69.76
69464;DHT22;56665;41.106;16.688;2023-04-01T03:35:04;14.77;70.08
69464;DHT22;56665;41.106;16.688;2023-04-01T03:38:08;14.84;70.26
69464;DHT22;56665;41.106;16.688;2023-04-01T03:41:15;14.91;70.37
69464;DHT22;56665;41.106;16.688;2023-04-01T03:44:20;14.95;70.04
69464;DHT22;56665;41.106;16.688;2023-04-01T03:47:28;15.01;69.98
69464;DHT22;56665;41.106;16.688;2023-04-01T03:50:34;14.97;69.58
69464;DHT22;56665;41.106;16.688;2023-04-01T03:53:38;14.97;71.05
69464;DHT22;56665;41.106;16.688;2023-04-01T03:56:43;14.95;70.44
69464;DHT22;56665;41.106;16.688;2023-04-01T03:59:46;14.99;69.90
69464;DHT22;56665;41.106;16.688;2023-04-01T04:02:50;15.01;70.12
69464;DHT22;56665;41.106;16.688;2023-04-01T04:05:59;15.02;70.00
69464;DHT22;56665;41.106;16.688;2023-04-01T04:09:02;15.04;69.98
69464;DHT22;56665;41.106;16.688;2023-04-01T04:12:07;15.04;70.17
69464;DHT22;56665;41.106;16.688;2023-04-01T04:15:11;15.01;71.07
69464;DHT22;56665;41.106;16.688;2023-04-01T04:18:15;14.97;70.29
69464;DHT22;56665;41.106;16.688;2023-04-01T04:21:19;14.94;70.19
69464;DHT22;56665;41.106;16.688;2023-04-01T04:24:23;14.94;70.18
69464;DHT22;56665;41.106;16.688;2023-04-01T04:27:39;14.92;70.23
69464;DHT22;56665;41.106;16.688;2023-04-01T04:30:45;14.94;70.04
69464;DHT22;56665;41.106;16.688;2023-04-01T04:33:49;14.92;70.01
69464;DHT22;56665;41.106;16.688;2023-04-01T04:36:53;14.91;70.05
69464;DHT22;56665;41.106;16.688;2023-04-01T04:39:58;14.89;70.16
69464;DHT22;56665;41.106;16.688;2023-04-01T04:43:03;14.95;69.99
69464;DHT22;56665;41.106;16.688;2023-04-01T04:46:08;14.92;70.00
69464;DHT22;56665;41.106;16.688;2023-04-01T04:49:12;14.94;69.92
69464;DHT22;56665;41.106;16.688;2023-04-01T04:52:16;14.95;69.73
69464;DHT22;56665;41.106;16.688;2023-04-01T04:55:20;14.98;69.67
69464;DHT22;56665;41.106;16.688;2023-04-01T04:58:31;15.07;69.35
69464;DHT22;56665;41.106;16.688;2023-04-01T05:01:34;15.18;69.00
69464;DHT22;56665;41.106;16.688;2023-04-01T05:04:38;15.26;68.46
69464;DHT22;56665;41.106;16.688;2023-04-01T05:07:45;15.38;67.84
69464;DHT22;56665;41.106;16.688;2023-04-01T05:10:49;15.53;67.59
69464;DHT22;56665;41.106;16.688;2023-04-01T05:13:53;15.70;66.95
69464;DHT22;56665;41.106;16.688;2023-04-01T05:16:56;15.78;66.34
69464;DHT22;56665;41.106;16.688;2023-04-01T05:20:01;15.93;65.52
69464;DHT22;56665;41.106;16.688;2023-04-01T05:23:06;16.04;65.04
69464;DHT22;56665;41.106;16.688;2023-04-01T05:26:12;16.18;65.10
69464;DHT22;56665;41.106;16.688;2023-04-01T05:29:16;16.38;64.43
69464;DHT22;56665;41.106;16.688;2023-04-01T05:32:22;16.56;63.49
69464;DHT22;56665;41.106;16.688;2023-04-01T05:35:26;16.75;62.75
69464;DHT22;56665;41.106;16.688;2023-04-01T05:38:31;16.77;62.03
69464;DHT22;56665;41.106;16.688;2023-04-01T05:41:36;16.77;61.92
69464;DHT22;56665;41.106;16.688;2023-04-01T05:44:40;16.85;61.30
69464;DHT22;56665;41.106;16.688;2023-04-01T05:47:43;16.83;61.25
69464;DHT22;56665;41.106;16.688;2023-04-01T05:50:47;16.96;61.25
69464;DHT22;56665;41.106;16.688;2023-04-01T05:53:51;17.13;60.86
69464;DHT22;56665;41.106;16.688;2023-04-01T05:56:56;17.26;60.39
69464;DHT22;56665;41.106;16.688;2023-04-01T06:00:00;17.38;60.07
69464;DHT22;56665;41.106;16.688;2023-04-01T06:03:03;17.55;59.59
69464;DHT22;56665;41.106;16.688;2023-04-01T06:06:40;17.71;59.16
69464;DHT22;56665;41.106;16.688;2023-04-01T06:09:46;17.93;58.54
69464;DHT22;56665;41.106;16.688;2023-04-01T06:19:39;18.41;56.63
69464;DHT22;56665;41.106;16.688;2023-04-01T06:32:42;18.95;54.44
69464;DHT22;56665;41.106;16.688;2023-04-01T06:36:25;19.37;53.33
69464;DHT22;56665;41.106;16.688;2023-04-01T06:46:59;20.39;50.66
69464;DHT22;56665;41.106;16.688;2023-04-01T06:54:11;20.98;49.80
69464;DHT22;56665;41.106;16.688;2023-04-01T06:57:58;20.83;49.89
69464;DHT22;56665;41.106;16.688;2023-04-01T07:01:07;21.10;49.82
69464;DHT22;56665;41.106;16.688;2023-04-01T07:10:51;21.66;48.37
69464;DHT22;56665;41.106;16.688;2023-04-01T07:14:29;21.77;48.02
69464;DHT22;56665;41.106;16.688;2023-04-01T07:17:36;21.63;48.18
69464;DHT22;56665;41.106;16.688;2023-04-01T07:20:46;21.85;47.96
69464;DHT22;56665;41.106;16.688;2023-04-01T07:23:52;22.18;47.76
69464;DHT22;56665;41.106;16.688;2023-04-01T07:27:13;22.34;47.44
69464;DHT22;56665;41.106;16.688;2023-04-01T07:30:21;22.60;47.15
69464;DHT22;56665;41.106;16.688;2023-04-01T07:33:53;22.69;47.01
69464;DHT22;56665;41.106;16.688;2023-04-01T07:40:48;23.05;45.64
69464;DHT22;56665;41.106;16.688;2023-04-01T07:44:25;23.36;45.55
69464;DHT22;56665;41.106;16.688;2023-04-01T08:01:28;24.48;43.58
69464;DHT22;56665;41.106;16.688;2023-04-01T08:12:08;24.88;42.31
69464;DHT22;56665;41.106;16.688;2023-04-01T08:19:46;25.48;41.46
69464;DHT22;56665;41.106;16.688;2023-04-01T08:26:54;25.10;41.50
69464;DHT22;56665;41.106;16.688;2023-04-01T08:30:19;24.57;42.22
69464;DHT22;56665;41.106;16.688;2023-04-01T08:33:30;24.79;42.52
69464;DHT22;56665;41.106;16.688;2023-04-01T08:37:04;24.57;42.56
69464;DHT22;56665;41.106;16.688;2023-04-01T08:44:20;25.21;40.92
69464;DHT22;56665;41.106;16.688;2023-04-01T08:47:56;25.55;39.97
69464;DHT22;56665;41.106;16.688;2023-04-01T09:02:37;27.78;36.88
69464;DHT22;56665;41.106;16.688;2023-04-01T09:06:11;27.98;36.70
69464;DHT22;56665;41.106;16.688;2023-04-01T09:16:40;28.55;36.09
69464;DHT22;56665;41.106;16.688;2023-04-01T09:34:13;26.37;36.03
69464;DHT22;56665;41.106;16.688;2023-04-01T09:37:57;27.15;34.55
69464;DHT22;56665;41.106;16.688;2023-04-01T09:45:09;27.77;33.00
69464;DHT22;56665;41.106;16.688;2023-04-01T09:52:05;27.19;33.64
69464;DHT22;56665;41.106;16.688;2023-04-01T10:21:46;28.68;32.65
69464;DHT22;56665;41.106;16.688;2023-04-01T11:00:38;27.30;33.50
69464;DHT22;56665;41.106;16.688;2023-04-01T11:39:28;22.14;50.36
69464;DHT22;56665;41.106;16.688;2023-04-01T11:43:16;20.93;50.79
69464;DHT22;56665;41.106;16.688;2023-04-01T11:54:05;21.77;51.52
69464;DHT22;56665;41.106;16.688;2023-04-01T12:08:10;21.67;53.31
69464;DHT22;56665;41.106;16.688;2023-04-01T12:11:17;21.90;52.83
69464;DHT22;56665;41.106;16.688;2023-04-01T12:18:00;21.10;53.94
69464;DHT22;56665;41.106;16.688;2023-04-01T12:24:46;20.19;54.86
69464;DHT22;56665;41.106;16.688;2023-04-01T12:28:19;20.16;53.67
69464;DHT22;56665;41.106;16.688;2023-04-01T12:32:01;20.18;52.45
69464;DHT22;56665;41.106;16.688;2023-04-01T12:35:20;20.60;52.21
69464;DHT22;56665;41.106;16.688;2023-04-01T12:38:31;21.37;50.38
69464;DHT22;56665;41.106;16.688;2023-04-01T12:51:50;22.64;45.83
69464;DHT22;56665;41.106;16.688;2023-04-01T13:02:12;22.96;45.85
69464;DHT22;56665;41.106;16.688;2023-04-01T13:05:54;23.12;45.79
69464;DHT22;56665;41.106;16.688;2023-04-01T13:15:31;23.09;44.65
69464;DHT22;56665;41.106;16.688;2023-04-01T13:22:35;23.70;43.70
69464;DHT22;56665;41.106;16.688;2023-04-01T13:26:04;23.44;43.50
69464;DHT22;56665;41.106;16.688;2023-04-01T13:29:15;23.05;44.02
69464;DHT22;56665;41.106;16.688;2023-04-01T13:35:51;23.58;43.43
69464;DHT22;56665;41.106;16.688;2023-04-01T13:39:02;23.34;42.85
69464;DHT22;56665;41.106;16.688;2023-04-01T13:42:27;23.03;42.80
69464;DHT22;56665;41.106;16.688;2023-04-01T14:03:16;21.58;43.82
69464;DHT22;56665;41.106;16.688;2023-04-01T14:09:45;22.23;44.16
69464;DHT22;56665;41.106;16.688;2023-04-01T14:12:59;22.18;45.08
69464;DHT22;56665;41.106;16.688;2023-04-01T14:16:50;22.23;45.54
69464;DHT22;56665;41.106;16.688;2023-04-01T14:20:13;22.47;45.08
69464;DHT22;56665;41.106;16.688;2023-04-01T14:23:40;21.72;46.99
69464;DHT22;56665;41.106;16.688;2023-04-01T14:27:16;21.92;46.54
69464;DHT22;56665;41.106;16.688;2023-04-01T14:34:16;21.90;47.97
69464;DHT22;56665;41.106;16.688;2023-04-01T14:40:56;20.40;49.23
69464;DHT22;56665;41.106;16.688;2023-04-01T14:47:42;20.53;49.25
69464;DHT22;56665;41.106;16.688;2023-04-01T14:50:50;19.74;50.98
69464;DHT22;56665;41.106;16.688;2023-04-01T14:54:17;19.74;51.21
69464;DHT22;56665;41.106;16.688;2023-04-01T14:57:30;20.15;51.13
69464;DHT22;56665;41.106;16.688;2023-04-01T15:01:10;20.30;49.86
69464;DHT22;56665;41.106;16.688;2023-04-01T15:08:07;20.57;49.44
69464;DHT22;56665;41.106;16.688;2023-04-01T15:14:24;21.31;47.66
69464;DHT22;56665;41.106;16.688;2023-04-01T15:20:47;20.22;49.51
69464;DHT22;56665;41.106;16.688;2023-04-01T15:24:07;19.85;50.12
69464;DHT22;56665;41.106;16.688;2023-04-01T15:34:27;19.42;51.82
69464;DHT22;56665;41.106;16.688;2023-04-01T15:37:56;19.42;51.47
69464;DHT22;56665;41.106;16.688;2023-04-01T15:44:27;18.89;51.91
69464;DHT22;56665;41.106;16.688;2023-04-01T15:48:02;19.13;51.55
69464;DHT22;56665;41.106;16.688;2023-04-01T16:05:37;18.75;53.17
69464;DHT22;56665;41.106;16.688;2023-04-01T16:09:12;18.60;53.75
69464;DHT22;56665;41.106;16.688;2023-04-01T16:15:59;18.72;54.19
69464;DHT22;56665;41.106;16.688;2023-04-01T16:22:35;18.58;54.32
69464;DHT22;56665;41.106;16.688;2023-04-01T16:25:45;18.38;54.97
69464;DHT22;56665;41.106;16.688;2023-04-01T16:28:55;18.02;56.07
69464;DHT22;56665;41.106;16.688;2023-04-01T16:42:40;17.49;57.84
69464;DHT22;56665;41.106;16.688;2023-04-01T16:49:24;17.65;58.71
69464;DHT22;56665;41.106;16.688;2023-04-01T16:52:40;17.81;58.82
69464;DHT22;56665;41.106;16.688;2023-04-01T16:59:16;18.05;58.19
69464;DHT22;56665;41.106;16.688;2023-04-01T17:02:34;17.92;60.55
69464;DHT22;56665;41.106;16.688;2023-04-01T17:09:22;17.52;59.08
69464;DHT22;56665;41.106;16.688;2023-04-01T17:12:38;17.28;60.06
69464;DHT22;56665;41.106;16.688;2023-04-01T17:16:10;17.13;60.22
69464;DHT22;56665;41.106;16.688;2023-04-01T17:22:44;16.99;60.51
69464;DHT22;56665;41.106;16.688;2023-04-01T17:32:38;16.89;60.98
69464;DHT22;56665;41.106;16.688;2023-04-01T17:42:46;16.79;61.49
69464;DHT22;56665;41.106;16.688;2023-04-01T17:46:03;16.95;60.86
69464;DHT22;56665;41.106;16.688;2023-04-01T17:52:38;16.96;61.38
69464;DHT22;56665;41.106;16.688;2023-04-01T18:16:43;16.85;62.36
69464;DHT22;56665;41.106;16.688;2023-04-01T18:20:06;16.82;62.66
69464;DHT22;56665;41.106;16.688;2023-04-01T18:23:23;16.80;62.41
69464;DHT22;56665;41.106;16.688;2023-04-01T18:26:31;16.80;62.36
69464;DHT22;56665;41.106;16.688;2023-04-01T18:30:41;16.77;62.35
69464;DHT22;56665;41.106;16.688;2023-04-01T18:33:21;16.63;62.35
69464;DHT22;56665;41.106;16.688;2023-04-01T18:36:53;16.45;63.05
69464;DHT22;56665;41.106;16.688;2023-04-01T18:43:36;16.44;63.53
69464;DHT22;56665;41.106;16.688;2023-04-01T18:50:18;16.35;64.08
69464;DHT22;56665;41.106;16.688;2023-04-01T18:57:20;16.38;64.21
69464;DHT22;56665;41.106;16.688;2023-04-01T19:00:34;16.41;63.65
69464;DHT22;56665;41.106;16.688;2023-04-01T19:03:52;16.39;63.81
69464;DHT22;56665;41.106;16.688;2023-04-01T19:07:19;16.39;64.30
69464;DHT22;56665;41.106;16.688;2023-04-01T19:20:47;16.25;64.51
69464;DHT22;56665;41.106;16.688;2023-04-01T19:27:37;16.25;64.91
69464;DHT22;56665;41.106;16.688;2023-04-01T19:30:54;16.21;64.57
69464;DHT22;56665;41.106;16.688;2023-04-01T19:38:02;16.11;64.59
69464;DHT22;56665;41.106;16.688;2023-04-01T19:41:20;16.08;64.67
69464;DHT22;56665;41.106;16.688;2023-04-01T19:47:46;16.03;64.11
69464;DHT22;56665;41.106;16.688;2023-04-01T19:50:56;16.01;64.19
69464;DHT22;56665;41.106;16.688;2023-04-01T20:00:57;16.07;63.60
69464;DHT22;56665;41.106;16.688;2023-04-01T20:04:07;16.01;63.01
69464;DHT22;56665;41.106;16.688;2023-04-01T20:10:34;16.03;62.70
69464;DHT22;56665;41.106;16.688;2023-04-01T20:20:26;15.96;62.00
69464;DHT22;56665;41.106;16.688;2023-04-01T20:27:08;15.94;59.38
69464;DHT22;56665;41.106;16.688;2023-04-01T20:34:20;15.93;57.69
69464;DHT22;56665;41.106;16.688;2023-04-01T20:40:44;15.87;56.48
69464;DHT22;56665;41.106;16.688;2023-04-01T20:44:16;15.84;56.36
69464;DHT22;56665;41.106;16.688;2023-04-01T20:47:53;15.86;55.63
69464;DHT22;56665;41.106;16.688;2023-04-01T20:51:06;15.81;55.47
69464;DHT22;56665;41.106;16.688;2023-04-01T20:54:37;15.83;55.45
69464;DHT22;56665;41.106;16.688;2023-04-01T20:58:13;15.80;55.01
69464;DHT22;56665;41.106;16.688;2023-04-01T21:05:14;15.80;55.03
69464;DHT22;56665;41.106;16.688;2023-04-01T21:18:24;15.81;54.92
69464;DHT22;56665;41.106;16.688;2023-04-01T21:31:26;15.80;55.14
69464;DHT22;56665;41.106;16.688;2023-04-01T21:34:51;15.83;55.30
69464;DHT22;56665;41.106;16.688;2023-04-01T22:09:21;15.65;57.01
69464;DHT22;56665;41.106;16.688;2023-04-01T22:12:55;15.60;57.24
69464;DHT22;56665;41.106;16.688;2023-04-01T22:26:34;15.34;58.14
69464;DHT22;56665;41.106;16.688;2023-04-01T22:33:05;15.28;58.34
69464;DHT22;56665;41.106;16.688;2023-04-01T22:36:20;15.22;58.28
69464;DHT22;56665;41.106;16.688;2023-04-01T22:43:16;15.20;58.79
69464;DHT22;56665;41.106;16.688;2023-04-01T22:47:21;15.19;59.06
69464;DHT22;56665;41.106;16.688;2023-04-01T22:50:22;15.12;59.09
69464;DHT22;56665;41.106;16.688;2023-04-01T22:57:05;14.98;59.52
69464;DHT22;56665;41.106;16.688;2023-04-01T23:03:31;14.92;59.71
69464;DHT22;56665;41.106;16.688;2023-04-01T23:06:39;14.88;59.77
69464;DHT22;56665;41.106;16.688;2023-04-01T23:09:47;14.84;60.26
69464;DHT22;56665;41.106;16.688;2023-04-01T23:12:57;14.81;60.40
69464;DHT22;56665;41.106;16.688;2023-04-01T23:16:02;14.77;60.54
69464;DHT22;56665;41.106;16.688;2023-04-01T23:29:15;14.66;60.81
69464;DHT22;56665;41.106;16.688;2023-04-01T23:32:22;14.60;60.86
69464;DHT22;56665;41.106;16.688;2023-04-01T23:35:29;14.59;61.03
69464;DHT22;56665;41.106;16.688;2023-04-01T23:38:37;14.57;61.13
69464;DHT22;56665;41.106;16.688;2023-04-01T23:41:45;14.59;61.16
69464;DHT22;56665;41.106;16.688;2023-04-01T23:44:51;14.56;61.55
69464;DHT22;56665;41.106;16.688;2023-04-01T23:47:57;14.55;61.38
69464;DHT22;56665;41.106;16.688;2023-04-01T23:51:02;14.53;61.47
69464;DHT22;56665;41.106;16.688;2023-04-01T23:54:48;14.52;61.43
69464;DHT22;56665;41.106;16.688;2023-04-01T23:58:22;14.50;60.98
